Eielson Air Force Base
PAEI : now visible

Airfield :











YOU CAN JOIN US ON...

 
LOGIN :

Register | Disclaimer

   EN    FR    IT 

 









Legend :    VFR   Marginal VFR   IFR   Intensive IFR   Very Intensive IFR
Visi :
Ceiling :
>= 8 km
>= 3000ft
5 to 8 km
1000 to 3000 ft
1500m to 5 km
500 to 1000 ft
800 to 1500m
200 to 500 ft
< 800m
< 200 ft
Symbols :   Thunderstorms  Fog  Heavy snow  Heavy precipitations  Wind > 20 kt






- Airport Elevation : 547 ft
- IATA code : EIL


PAEI - Eielson Air Force Base

CURRENT METAR :
  • 250005Z AUTO 00000KT 10SM CLR 28/14 A2984 RMK AO2 SLP106 $

EXPIRED METARs :
  • 242355Z 00000KT 5SM FU BKN200 28/15 A2984 RMK AO2A SLP106 T02800146 10286 20227 57010 $
  • 242255Z 27003KT 5SM FU BKN200 29/15 A2985 RMK AO2A SLP109 T02860151 $
  • 242155Z 00000KT 5SM FU BKN200 28/15 A2986 RMK SLP113 T02760149 $
  • 242055Z 00000KT 5SM FU BKN210 27/16 A2987 RMK AO2A SLP116 T02700160 57010 $
  • 241955Z 00000KT 5SM FU BKN200 25/15 A2988 RMK SLP119 T02540151 $

TAF TAF PAEI
Valid from the 24 at 22:00 until the 26 at 04:00 UTC


242200Z 2422/2604 VRB06KT 8000 FU BKN200 QNH2988INS
BECMG 2509/2510 26009KT 9000 -SHRA VCTS SCT050 BKN080CB BKN200 QNH2985INS
TEMPO 2512/2516 VRB10G20KT 6000 -TSRA SCT030 BKN050CB
BECMG 2515/2516 VRB06KT 9999 NSW BKN050 QNH2982INS
TEMPO 2520/2524 6000 -SHRA BKN030 TX32/2502Z TN15/2512Z
PAZA FIR / North America



MET'MAP, your aeronautical weather chart ! - Copyright ORBIFLY December 2007 - Disclaimer

ORBIFLY MET'MAP TEAM :

Programming & Development : Alexandra Zaïnal
Original concept : Baudouin d'Aumeries
Technical & hardware support : Manuel Goepfert
Assistance : Marc-Olivier Méhu




SOURCES & CREDITS :

   NOAA       Earth
Advisory